Time;durP1;ratioP1;P1;durP2;ratioP2;P2;SDS_P1;SDS_P2;PMS_P1;PMS_P2;Temp;Humidity;BMP_temperature;BMP_pressure;BME280_temperature;BME280_humidity;BME280_pressure;Samples;Min_cycle;Max_cycle;Signal;HPM_P1;HPM_P2
2023/06/16 00:01:36;;;;;;;4.53;1.70;;;13.40;99.90;;;;;;4952613;28;20240;-71
2023/06/16 00:04:07;;;;;;;5.30;2.05;;;13.50;99.90;;;;;;4956747;28;20196;-71
2023/06/16 00:06:42;;;;;;;5.03;1.90;;;13.60;99.90;;;;;;4952712;28;20205;-71
2023/06/16 00:09:16;;;;;;;4.57;2.00;;;13.60;99.90;;;;;;4955291;29;20291;-71
2023/06/16 00:11:47;;;;;;;7.35;2.05;;;13.80;99.90;;;;;;4955977;28;20220;-70
2023/06/16 00:14:18;;;;;;;5.70;1.70;;;13.90;99.90;;;;;;4955764;28;20560;-71
2023/06/16 00:16:52;;;;;;;4.38;1.70;;;14.00;99.90;;;;;;4955858;28;20227;-69
2023/06/16 00:19:27;;;;;;;2.75;1.52;;;14.20;99.90;;;;;;4955895;29;20189;-70
2023/06/16 00:21:59;;;;;;;4.57;1.70;;;14.30;99.90;;;;;;4955745;28;20216;-72
2023/06/16 00:24:32;;;;;;;6.82;1.88;;;14.40;99.90;;;;;;4956038;28;20255;-72
2023/06/16 00:27:03;;;;;;;5.10;1.83;;;14.50;99.90;;;;;;4956872;28;20201;-71
2023/06/16 00:29:34;;;;;;;6.70;1.60;;;14.50;99.90;;;;;;4954449;28;20200;-72
2023/06/16 00:32:07;;;;;;;3.38;1.67;;;14.60;99.90;;;;;;4954564;28;20223;-71
2023/06/16 00:34:39;;;;;;;7.10;1.90;;;14.70;99.90;;;;;;4960972;28;20239;-72
2023/06/16 00:37:10;;;;;;;3.05;1.40;;;14.80;99.90;;;;;;4958772;28;20674;-74
2023/06/16 00:39:41;;;;;;;2.50;1.50;;;14.90;99.90;;;;;;4951515;28;20205;-73
2023/06/16 00:42:12;;;;;;;3.08;1.50;;;15.00;99.90;;;;;;4949631;28;20224;-73
2023/06/16 00:44:44;;;;;;;3.67;1.50;;;15.00;99.90;;;;;;4950734;28;20212;-74
2023/06/16 00:47:17;;;;;;;5.03;1.30;;;15.10;99.90;;;;;;4951520;29;20200;-73
2023/06/16 00:49:48;;;;;;;3.67;1.50;;;15.20;99.90;;;;;;4961462;28;20204;-72
2023/06/16 00:52:20;;;;;;;5.47;1.83;;;15.30;99.90;;;;;;4957750;28;20590;-71
2023/06/16 00:54:51;;;;;;;5.13;1.48;;;15.40;99.90;;;;;;4949530;28;20204;-71
2023/06/16 00:57:22;;;;;;;5.10;1.40;;;15.50;99.90;;;;;;4953707;28;20200;-72
2023/06/16 00:59:53;;;;;;;4.75;1.50;;;15.50;99.90;;;;;;4953301;28;20239;-72
2023/06/16 01:02:26;;;;;;;4.05;1.40;;;15.60;99.90;;;;;;4953911;28;20248;-72
2023/06/16 01:04:57;;;;;;;3.35;1.50;;;15.70;99.90;;;;;;4950683;28;20228;-73
2023/06/16 01:07:35;;;;;;;4.20;1.50;;;15.90;99.90;;;;;;4955051;29;20633;-71
2023/06/16 01:10:11;;;;;;;3.78;1.50;;;16.00;99.90;;;;;;4956657;28;20201;-71
2023/06/16 01:12:52;;;;;;;4.20;1.30;;;16.10;99.90;;;;;;4954085;28;20208;-71
2023/06/16 01:15:26;;;;;;;2.17;1.30;;;16.20;99.90;;;;;;4952570;29;20209;-72
2023/06/16 01:18:03;;;;;;;3.15;1.30;;;16.30;99.90;;;;;;4954411;28;20284;-71
2023/06/16 01:20:43;;;;;;;4.28;1.20;;;16.20;99.90;;;;;;4952237;28;20212;-73
2023/06/16 01:23:35;;;;;;;4.90;1.15;;;16.20;99.90;;;;;;4951596;28;20217;-71
2023/06/16 01:26:13;;;;;;;4.85;1.20;;;16.30;99.90;;;;;;4953525;28;20208;-71
2023/06/16 01:28:46;;;;;;;4.53;1.10;;;16.30;99.90;;;;;;4943489;28;20750;-70
2023/06/16 01:31:19;;;;;;;2.95;1.20;;;16.40;99.90;;;;;;4952550;28;20201;-71
2023/06/16 01:33:51;;;;;;;2.60;1.02;;;16.50;99.90;;;;;;4948067;29;20612;-71
2023/06/16 01:36:23;;;;;;;3.38;1.20;;;16.50;99.90;;;;;;4945404;28;20679;-72
2023/06/16 01:38:55;;;;;;;3.75;1.10;;;16.60;99.90;;;;;;4951767;28;20656;-71
2023/06/16 01:41:29;;;;;;;3.30;1.10;;;16.70;99.90;;;;;;4959207;28;20203;-72
2023/06/16 01:44:01;;;;;;;4.53;0.98;;;16.70;99.90;;;;;;4951601;28;20559;-71
2023/06/16 01:46:33;;;;;;;2.40;1.20;;;16.80;99.90;;;;;;4954330;28;20205;-72
2023/06/16 01:49:05;;;;;;;2.72;0.90;;;16.90;99.90;;;;;;4951830;28;20197;-72
2023/06/16 01:51:36;;;;;;;5.22;1.00;;;16.90;99.90;;;;;;4954677;28;20200;-72
2023/06/16 01:54:07;;;;;;;3.67;1.00;;;16.90;99.90;;;;;;4952411;28;20563;-74
2023/06/16 01:56:40;;;;;;;1.77;0.80;;;17.00;99.90;;;;;;4952550;28;20631;-72
2023/06/16 01:59:12;;;;;;;4.47;1.00;;;16.90;99.90;;;;;;4954772;28;20217;-72
2023/06/16 02:01:48;;;;;;;8.48;1.60;;;16.90;99.90;;;;;;4950701;28;20244;-71
2023/06/16 02:04:22;;;;;;;2.75;1.05;;;17.00;99.90;;;;;;4945164;28;20299;-72
2023/06/16 02:07:01;;;;;;;4.00;1.10;;;17.10;99.90;;;;;;4952502;29;20296;-73
2023/06/16 02:09:34;;;;;;;1.80;1.02;;;17.10;99.90;;;;;;4950426;28;20197;-73
2023/06/16 02:12:09;;;;;;;3.97;1.15;;;17.20;99.90;;;;;;4942787;29;20620;-72
2023/06/16 02:14:41;;;;;;;2.78;1.10;;;17.40;99.90;;;;;;4956863;28;20236;-75
2023/06/16 02:17:13;;;;;;;3.85;1.30;;;17.50;99.90;;;;;;4958514;28;20201;-72
2023/06/16 02:19:44;;;;;;;3.92;1.38;;;17.50;99.90;;;;;;4956100;28;20212;-72
2023/06/16 02:22:15;;;;;;;4.50;1.00;;;17.50;99.90;;;;;;4957652;28;20224;-74
2023/06/16 02:24:47;;;;;;;4.35;1.30;;;17.40;99.90;;;;;;4957534;28;20208;-74
2023/06/16 02:27:20;;;;;;;3.78;1.15;;;17.40;99.90;;;;;;4958475;28;20200;-72
2023/06/16 02:29:51;;;;;;;2.83;1.08;;;17.50;99.90;;;;;;4955175;28;20994;-72
2023/06/16 02:32:22;;;;;;;3.00;1.48;;;17.60;99.90;;;;;;4957212;28;20197;-71
2023/06/16 02:34:53;;;;;;;3.50;1.20;;;17.70;99.90;;;;;;4958147;28;20280;-72
2023/06/16 02:37:27;;;;;;;3.45;1.00;;;17.70;99.90;;;;;;4958477;28;20201;-72
2023/06/16 02:39:58;;;;;;;2.55;1.08;;;17.70;99.90;;;;;;4955594;28;20236;-72
2023/06/16 02:42:31;;;;;;;2.75;1.10;;;17.80;99.90;;;;;;4957961;28;20301;-71
2023/06/16 02:45:02;;;;;;;3.60;1.20;;;17.90;99.90;;;;;;4955870;28;20200;-72
2023/06/16 02:47:33;;;;;;;2.97;0.98;;;18.00;99.90;;;;;;4955708;28;20205;-71
2023/06/16 02:50:04;;;;;;;1.45;1.00;;;18.00;99.90;;;;;;4950780;29;20201;-73
2023/06/16 02:52:36;;;;;;;7.30;2.63;;;18.10;99.90;;;;;;4958392;28;20206;-72
2023/06/16 02:55:07;;;;;;;2.85;1.30;;;18.10;99.90;;;;;;4955413;28;20201;-71
2023/06/16 02:57:40;;;;;;;2.90;1.05;;;18.20;99.90;;;;;;4955244;28;20197;-71
2023/06/16 03:00:12;;;;;;;2.17;0.98;;;18.20;99.90;;;;;;4950908;28;20229;-71
2023/06/16 03:02:44;;;;;;;1.85;0.90;;;18.40;99.90;;;;;;4956234;28;20264;-72
2023/06/16 03:05:17;;;;;;;4.18;0.90;;;18.40;99.90;;;;;;4957593;28;20197;-72
2023/06/16 03:07:49;;;;;;;3.05;0.90;;;18.40;99.90;;;;;;4956942;28;20232;-72
2023/06/16 03:10:20;;;;;;;1.98;0.93;;;18.40;99.90;;;;;;4956700;28;20207;-72
2023/06/16 03:12:53;;;;;;;1.75;1.00;;;18.40;99.90;;;;;;4954958;28;20203;-73
2023/06/16 03:15:25;;;;;;;2.47;0.90;;;18.50;99.90;;;;;;4955316;28;20233;-71
2023/06/16 03:17:56;;;;;;;3.33;0.90;;;18.60;99.90;;;;;;4955786;28;20212;-72
2023/06/16 03:20:28;;;;;;;1.65;0.68;;;18.60;99.90;;;;;;4955901;28;20283;-72
2023/06/16 03:22:59;;;;;;;1.95;0.90;;;18.50;99.90;;;;;;4954572;28;20221;-72
2023/06/16 03:25:30;;;;;;;4.88;1.00;;;18.50;99.90;;;;;;4954664;28;20205;-71
2023/06/16 03:28:04;;;;;;;2.30;0.82;;;18.60;99.90;;;;;;4956458;28;20208;-72
2023/06/16 03:30:35;;;;;;;2.15;0.70;;;18.60;99.90;;;;;;4956316;28;20201;-72
2023/06/16 03:33:06;;;;;;;2.65;0.75;;;18.50;99.90;;;;;;4946222;28;20201;-72
2023/06/16 03:35:37;;;;;;;2.70;0.95;;;18.50;99.90;;;;;;4955307;28;20208;-72
2023/06/16 03:38:08;;;;;;;1.30;0.80;;;18.50;99.90;;;;;;4948418;29;20207;-72
2023/06/16 03:40:39;;;;;;;1.30;0.70;;;18.50;99.90;;;;;;4953923;28;20211;-72
2023/06/16 03:43:13;;;;;;;1.15;0.70;;;18.50;99.90;;;;;;4951643;28;20231;-74
2023/06/16 03:45:44;;;;;;;3.60;0.85;;;18.50;99.90;;;;;;4956899;28;20197;-71
2023/06/16 03:48:15;;;;;;;2.92;0.65;;;18.60;99.90;;;;;;4957664;28;20212;-72
2023/06/16 03:50:46;;;;;;;1.83;0.70;;;18.60;99.90;;;;;;4955095;28;20284;-73
2023/06/16 03:53:17;;;;;;;3.08;0.80;;;18.70;99.90;;;;;;4958389;28;20564;-71
2023/06/16 03:55:49;;;;;;;2.38;0.80;;;18.90;99.90;;;;;;4956429;28;20664;-72
2023/06/16 03:58:22;;;;;;;2.50;0.80;;;18.80;99.90;;;;;;4956460;28;20683;-72
2023/06/16 04:00:53;;;;;;;3.03;0.95;;;18.80;99.90;;;;;;4956332;28;20239;-74
2023/06/16 04:03:25;;;;;;;2.25;0.82;;;18.80;99.90;;;;;;4955532;28;20267;-71
2023/06/16 04:05:57;;;;;;;2.40;0.82;;;18.70;99.90;;;;;;4954458;28;20201;-72
2023/06/16 04:08:28;;;;;;;3.60;0.90;;;18.70;99.90;;;;;;4952047;28;20197;-73
2023/06/16 04:10:59;;;;;;;2.83;0.77;;;18.70;99.90;;;;;;4953771;28;20223;-73
2023/06/16 04:13:32;;;;;;;1.55;0.70;;;18.70;99.90;;;;;;4955813;28;20201;-71
2023/06/16 04:16:06;;;;;;;3.40;0.88;;;18.70;99.90;;;;;;4956590;28;20209;-72
2023/06/16 04:18:37;;;;;;;4.68;1.10;;;18.70;99.90;;;;;;4951335;28;20665;-73
2023/06/16 04:21:08;;;;;;;2.25;0.80;;;18.70;99.90;;;;;;4954066;28;20205;-72
2023/06/16 04:23:39;;;;;;;3.10;0.90;;;18.70;99.90;;;;;;4955848;28;20231;-72
2023/06/16 04:26:11;;;;;;;2.17;0.60;;;18.60;99.90;;;;;;4956193;28;20205;-72
2023/06/16 04:28:44;;;;;;;1.17;0.77;;;18.60;99.90;;;;;;4954834;28;20198;-72
2023/06/16 04:31:15;;;;;;;1.77;0.70;;;18.60;99.90;;;;;;4955790;28;20326;-72
2023/06/16 04:33:46;;;;;;;3.17;0.80;;;18.60;99.90;;;;;;4955569;28;20204;-72
2023/06/16 04:36:19;;;;;;;2.10;0.70;;;18.60;99.90;;;;;;4955408;28;20568;-72
2023/06/16 04:38:50;;;;;;;3.63;0.80;;;18.60;99.90;;;;;;4951913;28;20743;-72
2023/06/16 04:41:21;;;;;;;2.08;0.80;;;18.60;99.90;;;;;;4953958;28;20201;-72
2023/06/16 04:43:54;;;;;;;2.65;0.82;;;18.70;99.90;;;;;;4955077;28;20234;-72
2023/06/16 04:46:25;;;;;;;2.80;0.73;;;18.60;99.90;;;;;;4955214;28;20208;-72
2023/06/16 04:48:57;;;;;;;2.92;0.90;;;18.70;99.90;;;;;;4952314;28;20199;-72
2023/06/16 04:51:28;;;;;;;2.92;0.90;;;18.60;99.90;;;;;;4952461;28;20295;-72
2023/06/16 04:53:59;;;;;;;3.67;0.75;;;18.60;99.90;;;;;;4951588;28;20209;-72
2023/06/16 04:56:30;;;;;;;1.42;0.77;;;18.70;99.90;;;;;;4952989;28;20209;-72
2023/06/16 04:59:03;;;;;;;1.45;0.60;;;18.70;99.90;;;;;;4953280;28;20241;-72
2023/06/16 05:01:34;;;;;;;1.50;0.70;;;18.70;99.90;;;;;;4953417;28;20240;-72
2023/06/16 05:04:06;;;;;;;4.93;1.00;;;18.60;99.90;;;;;;4952470;28;20221;-71
2023/06/16 05:16:44;;;;;;;1.60;0.90;;;18.60;99.90;;;;;;4953037;28;20688;-72
2023/06/16 05:19:15;;;;;;;3.45;0.82;;;18.60;99.90;;;;;;4954408;28;20289;-71
2023/06/16 05:21:46;;;;;;;1.58;0.80;;;18.60;99.90;;;;;;4952214;28;20593;-72
2023/06/16 05:24:17;;;;;;;3.42;1.17;;;18.60;99.90;;;;;;4954386;28;20726;-71
2023/06/16 05:26:51;;;;;;;0.85;0.63;;;18.50;99.90;;;;;;4951669;28;20204;-71
2023/06/16 05:29:22;;;;;;;2.30;0.80;;;18.50;99.90;;;;;;4945334;28;20203;-72
2023/06/16 05:31:55;;;;;;;2.15;0.80;;;18.40;99.90;;;;;;4952023;29;20255;-71
2023/06/16 05:34:26;;;;;;;3.80;1.17;;;18.40;99.90;;;;;;4953633;28;20557;-72
2023/06/16 05:36:58;;;;;;;4.25;1.13;;;18.40;99.90;;;;;;4953675;29;20280;-71
2023/06/16 05:39:29;;;;;;;5.28;1.30;;;18.40;99.90;;;;;;4953951;28;20197;-71
2023/06/16 05:42:00;;;;;;;3.08;1.33;;;18.40;99.90;;;;;;4954632;28;20287;-72
2023/06/16 05:44:32;;;;;;;4.05;1.48;;;18.40;99.90;;;;;;4951640;28;20275;-72
2023/06/16 05:47:05;;;;;;;9.63;1.70;;;18.30;99.90;;;;;;4953644;28;20204;-72
2023/06/16 05:49:37;;;;;;;3.95;1.40;;;18.20;99.90;;;;;;4954200;28;20205;-71
2023/06/16 05:52:08;;;;;;;4.65;1.42;;;18.10;99.90;;;;;;4954263;28;20196;-72
2023/06/16 05:54:40;;;;;;;4.85;1.40;;;18.00;99.90;;;;;;4954277;28;20291;-72
2023/06/16 05:57:11;;;;;;;3.50;1.50;;;18.00;99.90;;;;;;4954663;28;20259;-71
2023/06/16 05:59:42;;;;;;;3.15;1.33;;;17.90;99.90;;;;;;4952483;28;20231;-71
2023/06/16 06:02:17;;;;;;;4.13;1.30;;;17.80;99.90;;;;;;4952954;28;20260;-71
2023/06/16 06:04:48;;;;;;;2.03;1.10;;;17.70;99.90;;;;;;4950313;29;20311;-72
2023/06/16 06:07:19;;;;;;;2.60;1.00;;;17.70;99.90;;;;;;4953601;28;20629;-71
2023/06/16 06:09:50;;;;;;;3.45;1.08;;;17.60;99.90;;;;;;4963657;28;20205;-72
2023/06/16 06:12:21;;;;;;;6.38;1.60;;;17.60;99.90;;;;;;4953192;28;20657;-72
2023/06/16 06:14:52;;;;;;;4.15;1.35;;;17.50;99.90;;;;;;4952649;28;20212;-72
2023/06/16 06:17:25;;;;;;;5.13;1.60;;;17.50;99.90;;;;;;4953157;29;20653;-72
2023/06/16 06:19:56;;;;;;;4.97;1.38;;;17.40;99.90;;;;;;4950474;28;20574;-72
2023/06/16 06:22:31;;;;;;;3.58;0.90;;;17.30;99.90;;;;;;4952577;28;20283;-72
2023/06/16 06:25:03;;;;;;;5.05;1.42;;;17.30;99.90;;;;;;4950151;29;20204;-72
2023/06/16 06:27:34;;;;;;;2.90;1.33;;;17.20;99.90;;;;;;4949790;28;20201;-72
2023/06/16 06:30:05;;;;;;;2.30;1.20;;;17.10;99.90;;;;;;4953910;28;20203;-72
2023/06/16 06:32:38;;;;;;;4.97;1.50;;;17.00;99.90;;;;;;4953110;28;20237;-71
2023/06/16 06:35:10;;;;;;;3.70;1.73;;;16.90;99.90;;;;;;4949901;28;20253;-71
2023/06/16 06:37:41;;;;;;;5.57;1.58;;;16.80;99.90;;;;;;4952800;29;20631;-72
2023/06/16 06:40:13;;;;;;;6.13;1.50;;;16.80;99.90;;;;;;4953652;28;20687;-71
2023/06/16 06:42:44;;;;;;;2.83;1.38;;;16.80;99.90;;;;;;4954558;29;20211;-71
2023/06/16 06:45:15;;;;;;;2.85;1.50;;;16.70;99.90;;;;;;4952579;28;20265;-72
2023/06/16 06:47:48;;;;;;;3.45;1.35;;;16.60;99.90;;;;;;4952768;29;20208;-71
2023/06/16 06:50:20;;;;;;;2.78;1.30;;;16.50;99.90;;;;;;4950132;28;20200;-72
2023/06/16 06:52:51;;;;;;;4.22;1.05;;;16.40;99.90;;;;;;4950011;28;20664;-71
2023/06/16 06:55:22;;;;;;;5.50;1.33;;;16.30;99.90;;;;;;4948285;28;20206;-71
2023/06/16 06:57:53;;;;;;;2.30;1.48;;;16.30;99.90;;;;;;4953829;28;20661;-72
2023/06/16 07:00:24;;;;;;;4.57;1.90;;;16.20;99.90;;;;;;4954465;28;20583;-71
2023/06/16 07:02:57;;;;;;;7.90;1.83;;;16.10;99.90;;;;;;4954686;28;20598;-71
2023/06/16 07:05:28;;;;;;;4.05;2.03;;;16.00;99.90;;;;;;4957315;28;20682;-71
2023/06/16 07:07:59;;;;;;;4.28;1.60;;;15.90;99.90;;;;;;4954742;28;20228;-71
2023/06/16 07:10:32;;;;;;;2.85;1.20;;;15.90;99.90;;;;;;4952473;28;20661;-71
2023/06/16 07:13:03;;;;;;;3.38;1.45;;;15.90;99.90;;;;;;4953939;28;20205;-71
2023/06/16 07:15:34;;;;;;;3.28;1.73;;;15.80;99.90;;;;;;4955038;29;20205;-71
2023/06/16 07:18:07;;;;;;;5.72;2.45;;;15.70;99.90;;;;;;4956200;28;20203;-71
2023/06/16 07:20:38;;;;;;;6.93;2.50;;;15.70;99.90;;;;;;4955138;29;20204;-71
2023/06/16 07:23:09;;;;;;;4.68;2.30;;;15.60;99.90;;;;;;4956309;28;20193;-71
2023/06/16 07:25:40;;;;;;;5.47;2.42;;;15.60;99.90;;;;;;4955978;28;20208;-71
2023/06/16 07:28:12;;;;;;;4.53;2.70;;;15.50;99.90;;;;;;4955315;28;20581;-71
2023/06/16 07:30:46;;;;;;;5.60;3.30;;;15.40;99.90;;;;;;4956239;28;20200;-71
2023/06/16 07:33:19;;;;;;;4.65;2.92;;;15.30;99.90;;;;;;4956795;28;20201;-71
2023/06/16 07:35:50;;;;;;;5.53;2.80;;;15.20;99.90;;;;;;4952801;28;20197;-71
2023/06/16 07:38:21;;;;;;;4.88;3.03;;;15.10;99.90;;;;;;4954160;28;20201;-71
2023/06/16 07:40:52;;;;;;;5.90;2.85;;;15.00;99.90;;;;;;4955483;28;20197;-71
2023/06/16 07:43:24;;;;;;;5.57;2.88;;;15.00;99.90;;;;;;4957249;28;20304;-71
2023/06/16 07:45:55;;;;;;;6.70;3.13;;;14.90;99.90;;;;;;4955608;28;20556;-72
2023/06/16 07:48:28;;;;;;;7.65;3.28;;;14.90;99.90;;;;;;4955904;28;20203;-71
2023/06/16 07:50:59;;;;;;;6.63;3.28;;;14.90;99.90;;;;;;4955547;28;20208;-73
2023/06/16 07:53:31;;;;;;;5.50;3.28;;;14.90;99.90;;;;;;4976022;28;20207;-72
2023/06/16 07:56:02;;;;;;;6.32;3.30;;;14.80;99.90;;;;;;4969399;28;20729;-72
2023/06/16 07:58:35;;;;;;;5.68;2.40;;;14.80;99.90;;;;;;4964809;28;20207;-73
2023/06/16 08:01:07;;;;;;;4.65;2.08;;;14.80;99.90;;;;;;4955330;28;20573;-71
2023/06/16 08:03:40;;;;;;;4.80;2.15;;;14.70;99.90;;;;;;4962744;28;20231;-71
2023/06/16 08:06:11;;;;;;;5.97;2.63;;;14.60;99.90;;;;;;4952194;29;20311;-72
2023/06/16 08:08:42;;;;;;;3.92;2.40;;;14.60;99.90;;;;;;4950561;29;20752;-71
2023/06/16 08:11:14;;;;;;;5.95;2.17;;;14.50;99.90;;;;;;4954609;28;20189;-72
2023/06/16 08:13:45;;;;;;;2.28;1.83;;;14.50;99.90;;;;;;4955121;29;20225;-71
2023/06/16 08:16:16;;;;;;;3.97;1.98;;;14.40;99.90;;;;;;4956550;28;20203;-72
2023/06/16 08:18:50;;;;;;;3.63;2.00;;;14.40;99.90;;;;;;4956469;28;20207;-73
2023/06/16 08:21:21;;;;;;;4.88;1.73;;;14.40;99.90;;;;;;4954071;28;20209;-71
2023/06/16 08:23:52;;;;;;;3.67;1.83;;;14.30;99.90;;;;;;4947013;28;20303;-71
2023/06/16 08:26:24;;;;;;;7.03;1.98;;;14.30;99.90;;;;;;4949322;28;20201;-72
2023/06/16 08:28:55;;;;;;;3.20;2.20;;;14.30;99.90;;;;;;4947149;28;20236;-71
2023/06/16 08:31:27;;;;;;;4.57;2.30;;;14.20;99.90;;;;;;4954261;28;20201;-72
2023/06/16 08:34:01;;;;;;;7.38;3.03;;;14.20;99.90;;;;;;4956202;28;20223;-71
2023/06/16 08:36:33;;;;;;;6.90;2.50;;;14.20;99.90;;;;;;4959628;28;20212;-72
2023/06/16 08:39:05;;;;;;;4.47;2.38;;;14.20;99.90;;;;;;4954938;28;20627;-71
2023/06/16 08:41:38;;;;;;;4.53;2.35;;;14.10;99.90;;;;;;4948163;28;20239;-71
2023/06/16 08:44:13;;;;;;;4.68;2.20;;;14.10;99.90;;;;;;4952923;28;20242;-71
2023/06/16 08:46:44;;;;;;;6.75;2.40;;;14.10;99.90;;;;;;4951532;29;20728;-71
2023/06/16 08:49:18;;;;;;;5.28;2.40;;;14.00;99.90;;;;;;4954665;28;20199;-72
2023/06/16 08:51:51;;;;;;;4.68;2.30;;;14.00;99.90;;;;;;4954739;28;20211;-71
2023/06/16 08:54:23;;;;;;;5.40;2.42;;;14.00;99.90;;;;;;4954897;29;20200;-71
2023/06/16 08:56:55;;;;;;;6.15;2.72;;;14.00;99.90;;;;;;4952349;28;20215;-72
2023/06/16 08:59:28;;;;;;;4.95;2.67;;;14.00;99.90;;;;;;4952456;28;20565;-72
2023/06/16 09:02:01;;;;;;;7.43;2.85;;;13.90;99.90;;;;;;4951243;29;20268;-72
2023/06/16 09:04:34;;;;;;;4.32;2.80;;;13.90;99.90;;;;;;4954958;28;20228;-72
2023/06/16 09:07:06;;;;;;;7.10;3.05;;;13.90;99.90;;;;;;4953394;28;20251;-72
2023/06/16 09:09:37;;;;;;;7.50;3.60;;;13.90;99.90;;;;;;4955378;28;20205;-71
2023/06/16 09:12:10;;;;;;;6.53;3.03;;;13.80;99.90;;;;;;4949296;28;20197;-72
2023/06/16 09:14:48;;;;;;;6.60;3.30;;;13.80;99.90;;;;;;4953520;28;20253;-72
2023/06/16 09:17:24;;;;;;;5.88;3.25;;;13.80;99.90;;;;;;4955320;28;20696;-72
2023/06/16 09:19:58;;;;;;;6.70;3.22;;;13.70;99.90;;;;;;4955354;28;20237;-73
2023/06/16 09:22:29;;;;;;;8.63;3.47;;;13.70;99.90;;;;;;4954167;28;20205;-72
2023/06/16 09:25:01;;;;;;;7.78;3.10;;;13.60;99.90;;;;;;4954351;28;20227;-73
2023/06/16 09:27:45;;;;;;;6.18;2.58;;;13.60;99.90;;;;;;4946567;28;20204;-73
2023/06/16 09:30:18;;;;;;;5.90;2.72;;;13.60;99.90;;;;;;4943606;28;20196;-72
2023/06/16 09:32:50;;;;;;;5.18;2.55;;;13.50;99.90;;;;;;4953154;28;20205;-72
2023/06/16 09:35:24;;;;;;;5.35;2.35;;;13.50;99.90;;;;;;4950732;28;20200;-71
2023/06/16 09:37:56;;;;;;;6.25;2.55;;;13.50;99.90;;;;;;4954181;28;20222;-73
2023/06/16 09:40:30;;;;;;;4.55;2.60;;;13.40;99.90;;;;;;4953034;28;20207;-73
2023/06/16 09:43:03;;;;;;;5.13;2.67;;;13.40;99.90;;;;;;4953901;28;20204;-72
2023/06/16 09:45:35;;;;;;;6.05;2.78;;;13.40;99.90;;;;;;4952964;28;20221;-71
2023/06/16 09:48:08;;;;;;;6.35;2.88;;;13.40;99.90;;;;;;4953203;28;20570;-72
2023/06/16 09:50:42;;;;;;;4.90;2.40;;;13.40;99.90;;;;;;4951792;28;20237;-72
2023/06/16 09:53:16;;;;;;;5.60;3.20;;;13.40;99.90;;;;;;4952944;28;20684;-71
2023/06/16 09:55:47;;;;;;;4.50;2.70;;;13.30;99.90;;;;;;4953879;28;20548;-71
2023/06/16 09:58:18;;;;;;;9.07;3.28;;;13.30;99.90;;;;;;4949295;28;20192;-72
2023/06/16 10:00:49;;;;;;;5.35;3.20;;;13.20;99.90;;;;;;4952153;28;20232;-71
2023/06/16 10:03:21;;;;;;;5.50;3.30;;;13.20;99.90;;;;;;4953190;28;20227;-71
2023/06/16 10:05:56;;;;;;;5.13;2.60;;;13.10;99.90;;;;;;4953464;28;20223;-71
2023/06/16 10:08:28;;;;;;;5.35;2.97;;;13.10;99.90;;;;;;4953984;28;20192;-71
2023/06/16 10:10:59;;;;;;;5.22;2.65;;;13.10;99.90;;;;;;4952566;28;20215;-71
2023/06/16 10:13:32;;;;;;;6.40;3.17;;;13.10;99.90;;;;;;4952741;28;20197;-71
2023/06/16 10:16:05;;;;;;;5.93;3.15;;;13.00;99.90;;;;;;4952166;28;20577;-71
2023/06/16 10:18:38;;;;;;;6.00;2.90;;;13.00;99.90;;;;;;4944204;28;20596;-72
2023/06/16 10:21:13;;;;;;;6.90;3.00;;;13.00;99.90;;;;;;4953912;28;20211;-72
2023/06/16 10:23:45;;;;;;;8.75;3.40;;;12.90;99.90;;;;;;4947034;28;20204;-72
2023/06/16 10:26:16;;;;;;;6.70;3.40;;;12.90;99.90;;;;;;4944831;29;20685;-71
2023/06/16 10:28:48;;;;;;;5.75;2.88;;;12.90;99.90;;;;;;4953457;28;20207;-71
2023/06/16 10:31:22;;;;;;;6.72;3.50;;;12.80;99.90;;;;;;4951520;28;20657;-71
2023/06/16 10:33:58;;;;;;;8.52;4.03;;;12.80;99.90;;;;;;4949914;28;20744;-71
2023/06/16 10:36:33;;;;;;;8.85;4.38;;;12.70;99.90;;;;;;4953267;28;20203;-71
2023/06/16 10:39:09;;;;;;;9.32;4.20;;;12.70;99.90;;;;;;4953033;29;20723;-71
2023/06/16 10:41:53;;;;;;;9.57;4.18;;;12.70;99.90;;;;;;4955932;28;20196;-70
2023/06/16 10:44:31;;;;;;;8.10;3.95;;;12.60;99.90;;;;;;4953678;29;20272;-70
2023/06/16 10:47:29;;;;;;;8.07;4.38;;;12.60;99.90;;;;;;4955650;28;20201;-70
2023/06/16 10:50:04;;;;;;;6.38;4.05;;;12.60;99.90;;;;;;4948687;28;20236;-71
2023/06/16 10:52:53;;;;;;;6.88;3.90;;;12.60;99.90;;;;;;4954953;28;20208;-70
2023/06/16 10:55:34;;;;;;;7.57;3.78;;;12.60;99.90;;;;;;4951199;29;20711;-70
2023/06/16 10:58:34;;;;;;;7.68;3.80;;;12.60;99.90;;;;;;4947367;28;20206;-71
2023/06/16 11:01:25;;;;;;;8.20;4.30;;;12.50;99.90;;;;;;4914923;29;20256;-71
2023/06/16 11:04:06;;;;;;;9.73;4.35;;;12.50;99.90;;;;;;4955716;28;20200;-70
2023/06/16 11:07:11;;;;;;;11.93;4.90;;;12.50;99.90;;;;;;4956803;28;20215;-71
2023/06/16 11:09:44;;;;;;;6.40;4.13;;;12.40;99.90;;;;;;4950549;29;21466;-71
2023/06/16 11:12:18;;;;;;;8.95;4.80;;;12.40;99.90;;;;;;4956184;28;20204;-70
2023/06/16 11:14:49;;;;;;;7.18;3.65;;;12.30;99.90;;;;;;4958574;28;20294;-71
2023/06/16 11:17:20;;;;;;;6.00;3.67;;;12.30;99.90;;;;;;4955302;28;20232;-70
2023/06/16 11:19:56;;;;;;;8.75;3.90;;;12.30;99.90;;;;;;4955879;28;20281;-71
2023/06/16 11:22:35;;;;;;;8.25;4.05;;;12.30;99.90;;;;;;4956718;28;20284;-71
2023/06/16 11:25:09;;;;;;;7.57;4.20;;;12.30;99.90;;;;;;4955473;28;20323;-71
2023/06/16 11:27:41;;;;;;;8.43;4.18;;;12.20;99.90;;;;;;4954523;28;20247;-72
2023/06/16 11:30:13;;;;;;;8.40;4.22;;;12.30;99.90;;;;;;4954552;29;20198;-71
2023/06/16 11:32:44;;;;;;;7.53;4.20;;;12.30;99.90;;;;;;4956917;28;20201;-71
2023/06/16 11:35:15;;;;;;;8.55;4.60;;;12.20;99.90;;;;;;4949861;29;20205;-70
2023/06/16 11:37:50;;;;;;;10.15;5.10;;;12.20;99.90;;;;;;4952888;28;20197;-71
2023/06/16 11:40:25;;;;;;;10.60;5.10;;;12.20;99.90;;;;;;4959595;28;20196;-71
2023/06/16 11:43:00;;;;;;;12.02;5.50;;;12.10;99.90;;;;;;4955756;28;20540;-71
2023/06/16 11:45:32;;;;;;;12.38;6.57;;;12.10;99.90;;;;;;4952188;28;20224;-70
2023/06/16 11:48:04;;;;;;;11.82;6.20;;;12.00;99.90;;;;;;4942012;29;20197;-70
2023/06/16 11:50:36;;;;;;;12.63;6.97;;;12.00;99.90;;;;;;4951602;29;20228;-70
2023/06/16 11:53:08;;;;;;;11.90;6.68;;;12.00;99.90;;;;;;4952302;28;20193;-70
2023/06/16 11:55:41;;;;;;;13.30;6.88;;;12.00;99.90;;;;;;4956942;28;20229;-70
2023/06/16 11:58:15;;;;;;;12.43;6.82;;;11.90;99.90;;;;;;4953124;28;20233;-70
2023/06/16 12:00:47;;;;;;;13.57;7.25;;;12.00;99.90;;;;;;4952982;28;20239;-70
2023/06/16 12:03:19;;;;;;;14.38;7.18;;;11.90;99.90;;;;;;4957019;28;20205;-70
2023/06/16 12:05:53;;;;;;;12.23;6.78;;;11.90;99.90;;;;;;4953894;28;20629;-71
2023/06/16 12:08:40;;;;;;;11.57;6.95;;;11.90;99.90;;;;;;4956831;28;20285;-70
2023/06/16 12:11:15;;;;;;;11.57;6.43;;;11.90;99.90;;;;;;4955809;28;20283;-71
2023/06/16 12:13:46;;;;;;;14.82;6.38;;;11.80;99.90;;;;;;4957192;28;20197;-71
2023/06/16 12:16:18;;;;;;;11.50;7.45;;;11.80;99.90;;;;;;4956387;28;20196;-71
2023/06/16 12:18:50;;;;;;;13.98;7.10;;;11.70;99.90;;;;;;4956657;28;20211;-71
2023/06/16 12:21:23;;;;;;;13.30;7.60;;;11.70;99.90;;;;;;4956632;28;20708;-71
2023/06/16 12:23:55;;;;;;;14.20;7.20;;;11.70;99.90;;;;;;4954730;28;20564;-71
2023/06/16 12:26:34;;;;;;;13.30;7.53;;;11.60;99.90;;;;;;4956527;28;20295;-71
2023/06/16 12:29:11;;;;;;;13.18;7.70;;;11.60;99.90;;;;;;4956491;28;20193;-71
2023/06/16 12:31:54;;;;;;;13.43;7.25;;;11.60;99.90;;;;;;4953691;29;20284;-71
2023/06/16 12:34:28;;;;;;;11.88;6.82;;;11.60;99.90;;;;;;4955450;28;20201;-70
2023/06/16 12:37:06;;;;;;;16.33;8.18;;;11.60;99.90;;;;;;4956417;28;20282;-71
2023/06/16 12:39:37;;;;;;;10.90;6.40;;;11.50;99.90;;;;;;4956091;28;20201;-72
2023/06/16 12:42:12;;;;;;;13.52;7.03;;;11.50;99.90;;;;;;4956225;28;20566;-71
2023/06/16 12:44:48;;;;;;;10.07;5.93;;;11.50;99.90;;;;;;4953304;28;20200;-71
2023/06/16 12:47:20;;;;;;;12.07;6.80;;;11.50;99.90;;;;;;4953616;28;20207;-71
2023/06/16 12:49:52;;;;;;;14.27;7.00;;;11.40;99.90;;;;;;4953966;28;20720;-72
2023/06/16 12:52:24;;;;;;;11.05;6.88;;;11.40;99.90;;;;;;4954651;28;20307;-71
2023/06/16 12:54:57;;;;;;;11.82;7.32;;;11.40;99.90;;;;;;4956106;28;20304;-70
2023/06/16 12:57:30;;;;;;;15.82;8.63;;;11.40;99.90;;;;;;4950938;28;20193;-71
2023/06/16 13:00:02;;;;;;;12.95;8.10;;;11.40;99.90;;;;;;4952719;28;20232;-70
2023/06/16 13:02:33;;;;;;;12.18;7.93;;;11.40;99.90;;;;;;4952993;28;20233;-71
2023/06/16 13:05:04;;;;;;;13.63;8.50;;;11.30;99.90;;;;;;4951674;28;20225;-71
2023/06/16 13:07:35;;;;;;;12.90;8.38;;;11.30;99.90;;;;;;4954523;28;20665;-70
2023/06/16 13:10:06;;;;;;;11.90;8.30;;;11.30;99.90;;;;;;4952195;28;20201;-71
2023/06/16 13:12:39;;;;;;;15.57;8.80;;;11.20;99.90;;;;;;4954703;28;20228;-70
2023/06/16 13:15:11;;;;;;;15.70;8.48;;;11.20;99.90;;;;;;4953258;29;20756;-70
2023/06/16 13:17:42;;;;;;;14.45;8.43;;;11.20;99.90;;;;;;4954851;28;20196;-71
2023/06/16 13:20:14;;;;;;;15.77;8.65;;;11.20;99.90;;;;;;4954496;28;20200;-70
2023/06/16 13:22:45;;;;;;;16.40;8.93;;;11.20;99.90;;;;;;4969811;28;20188;-70
2023/06/16 13:25:16;;;;;;;14.73;8.52;;;11.20;99.90;;;;;;4956847;28;20231;-70